createdAt,value
2018-02-25T00:00:27.594Z,4.80
2018-02-25T00:02:54.949Z,4.60
2018-02-25T00:05:22.288Z,4.23
2018-02-25T00:07:49.636Z,4.17
2018-02-25T00:10:16.985Z,4.67
2018-02-25T00:12:44.355Z,4.73
2018-02-25T00:15:11.772Z,4.57
2018-02-25T00:17:39.123Z,4.30
2018-02-25T00:20:06.472Z,4.57
2018-02-25T00:22:33.812Z,4.57
2018-02-25T00:25:01.150Z,4.67
2018-02-25T00:27:28.494Z,4.57
2018-02-25T00:29:55.864Z,4.50
2018-02-25T00:32:23.197Z,4.97
2018-02-25T00:34:50.537Z,4.40
2018-02-25T00:37:17.932Z,4.80
2018-02-25T00:39:45.269Z,4.67
2018-02-25T00:42:12.614Z,4.97
2018-02-25T00:44:40.006Z,4.93
2018-02-25T00:47:07.342Z,4.47
2018-02-25T00:49:34.690Z,4.97
2018-02-25T00:52:02.031Z,5.30
2018-02-25T00:54:29.379Z,4.83
2018-02-25T00:56:56.731Z,4.87
2018-02-25T00:59:24.072Z,5.30
2018-02-25T01:01:51.447Z,5.00
2018-02-25T01:04:18.783Z,5.30
2018-02-25T01:06:46.171Z,4.87
2018-02-25T01:09:13.510Z,4.80
2018-02-25T01:11:41.607Z,5.00
2018-02-25T01:14:08.951Z,5.23
2018-02-25T01:16:36.354Z,4.80
2018-02-25T01:19:03.744Z,5.10
2018-02-25T01:21:31.127Z,4.90
2018-02-25T01:23:58.467Z,5.20
2018-02-25T01:26:25.847Z,5.10
2018-02-25T01:28:53.230Z,4.90
2018-02-25T01:31:20.578Z,5.30
2018-02-25T01:33:47.927Z,5.23
2018-02-25T01:36:15.280Z,5.40
2018-02-25T01:38:42.679Z,5.33
2018-02-25T01:41:10.013Z,5.30
2018-02-25T01:43:37.395Z,5.63
2018-02-25T01:46:04.736Z,5.53
2018-02-25T01:48:32.091Z,5.83
2018-02-25T01:50:59.480Z,5.83
2018-02-25T01:53:26.879Z,5.57
2018-02-25T01:55:54.227Z,6.10
2018-02-25T01:58:21.590Z,5.70
2018-02-25T02:00:48.999Z,5.87
2018-02-25T02:03:16.343Z,5.60
2018-02-25T02:05:43.689Z,5.87
2018-02-25T02:08:11.022Z,5.57
2018-02-25T02:10:38.383Z,5.67
2018-02-25T02:13:05.718Z,5.67
2018-02-25T02:15:33.074Z,5.70
2018-02-25T02:18:00.454Z,6.17
2018-02-25T02:20:27.847Z,5.63
2018-02-25T02:22:55.197Z,5.83
2018-02-25T02:25:22.544Z,5.93
2018-02-25T02:27:49.885Z,6.17
2018-02-25T02:30:17.235Z,5.60
2018-02-25T02:32:44.570Z,6.33
2018-02-25T02:35:11.922Z,5.97
2018-02-25T02:37:39.268Z,6.20
2018-02-25T02:40:06.658Z,5.60
2018-02-25T02:42:34.002Z,6.43
2018-02-25T02:45:01.362Z,6.00
2018-02-25T02:47:28.745Z,6.27
2018-02-25T02:49:56.124Z,5.77
2018-02-25T02:52:23.475Z,6.30
2018-02-25T02:54:50.876Z,5.93
2018-02-25T02:57:18.237Z,6.17
2018-02-25T02:59:45.615Z,5.93
2018-02-25T03:02:12.967Z,5.90
2018-02-25T03:04:40.355Z,6.23
2018-02-25T03:07:07.737Z,6.13
2018-02-25T03:09:35.098Z,6.53
2018-02-25T03:12:02.470Z,5.87
2018-02-25T03:14:29.819Z,5.73
2018-02-25T03:16:57.166Z,6.07
2018-02-25T03:19:24.549Z,5.87
2018-02-25T03:21:51.952Z,6.37
2018-02-25T03:24:19.290Z,5.93
2018-02-25T03:26:46.669Z,6.20
2018-02-25T03:29:14.025Z,6.47
2018-02-25T03:31:41.362Z,6.10
2018-02-25T03:34:08.775Z,6.13
2018-02-25T03:36:36.150Z,6.20
2018-02-25T03:39:03.491Z,5.90
2018-02-25T03:41:30.882Z,6.50
2018-02-25T03:43:58.245Z,6.10
2018-02-25T03:46:25.594Z,6.47
2018-02-25T03:48:52.952Z,6.20
2018-02-25T03:51:20.291Z,6.00
2018-02-25T03:53:47.634Z,6.63
2018-02-25T03:56:15.018Z,6.00
2018-02-25T03:58:42.360Z,6.40
2018-02-25T04:01:09.699Z,6.60
2018-02-25T04:03:37.200Z,5.87
2018-02-25T04:06:04.543Z,6.40
2018-02-25T04:08:31.879Z,6.53
2018-02-25T04:10:59.316Z,6.47
2018-02-25T04:13:26.667Z,6.50
2018-02-25T04:15:54.048Z,6.50
2018-02-25T04:18:21.454Z,6.53
2018-02-25T04:20:48.798Z,6.90
2018-02-25T04:23:16.144Z,6.30
2018-02-25T04:25:43.536Z,6.87
2018-02-25T04:28:10.874Z,5.97
2018-02-25T04:30:38.255Z,6.87
2018-02-25T04:33:05.603Z,6.73
2018-02-25T04:35:32.949Z,6.43
2018-02-25T04:38:00.285Z,6.40
2018-02-25T04:40:27.662Z,6.60
2018-02-25T04:42:55.045Z,6.63
2018-02-25T04:45:22.408Z,6.03
2018-02-25T04:47:49.791Z,6.50
2018-02-25T04:50:17.139Z,6.37
2018-02-25T04:52:44.496Z,6.80
2018-02-25T04:55:11.883Z,6.50
2018-02-25T04:57:39.231Z,6.13
2018-02-25T05:00:06.644Z,6.10
2018-02-25T05:02:34.019Z,6.77
2018-02-25T05:05:01.367Z,6.23
2018-02-25T05:07:28.799Z,6.57
2018-02-25T05:09:56.157Z,6.67
2018-02-25T05:12:23.598Z,6.50
2018-02-25T05:14:50.931Z,6.67
2018-02-25T05:17:18.323Z,6.70
2018-02-25T05:19:45.688Z,6.40
2018-02-25T05:22:13.026Z,6.90
2018-02-25T05:24:40.374Z,6.53
2018-02-25T05:27:07.781Z,6.70
2018-02-25T05:29:35.150Z,7.00
2018-02-25T05:32:02.500Z,6.93
2018-02-25T05:34:29.864Z,6.77
2018-02-25T05:36:57.213Z,6.30
2018-02-25T05:39:24.604Z,6.47
2018-02-25T05:41:51.951Z,6.57
2018-02-25T05:44:19.339Z,6.60
2018-02-25T05:46:46.694Z,6.43
2018-02-25T05:49:14.089Z,6.80
2018-02-25T05:51:41.456Z,6.80
2018-02-25T05:54:08.816Z,6.87
2018-02-25T05:56:36.177Z,7.07
2018-02-25T05:59:03.514Z,6.80
2018-02-25T06:01:30.887Z,7.00
2018-02-25T06:03:58.283Z,6.80
2018-02-25T06:06:25.663Z,6.53
2018-02-25T06:08:53.019Z,7.00
2018-02-25T06:11:20.361Z,6.80
2018-02-25T06:13:47.767Z,6.97
2018-02-25T06:16:15.150Z,7.10
2018-02-25T06:18:42.542Z,6.60
2018-02-25T06:21:09.959Z,6.83
2018-02-25T06:23:37.298Z,6.73
2018-02-25T06:26:04.652Z,6.53
2018-02-25T06:28:31.995Z,6.93
2018-02-25T06:30:59.387Z,6.83
2018-02-25T06:36:00.233Z,6.77
2018-02-25T06:38:27.595Z,6.70
2018-02-25T06:40:54.983Z,7.60
2018-02-25T06:43:22.362Z,7.20
2018-02-25T06:45:49.823Z,6.57
2018-02-25T06:48:17.166Z,7.07
2018-02-25T06:50:44.523Z,6.83
2018-02-25T06:53:11.927Z,6.83
2018-02-25T06:55:39.334Z,6.60
2018-02-25T06:58:06.713Z,7.37
2018-02-25T07:00:34.098Z,6.80
2018-02-25T07:03:01.451Z,7.43
2018-02-25T07:05:28.904Z,7.47
2018-02-25T07:07:56.284Z,6.67
2018-02-25T07:10:23.654Z,7.03
2018-02-25T07:12:50.997Z,7.20
2018-02-25T07:15:18.348Z,6.73
2018-02-25T07:17:45.691Z,7.53
2018-02-25T07:20:13.060Z,6.83
2018-02-25T07:22:40.415Z,6.90
2018-02-25T07:25:07.797Z,6.97
2018-02-25T07:27:35.200Z,7.33
2018-02-25T07:30:02.552Z,7.40
2018-02-25T07:32:29.895Z,7.00
2018-02-25T07:34:57.250Z,7.23
2018-02-25T07:37:24.642Z,6.97
2018-02-25T07:39:51.986Z,7.20
2018-02-25T07:42:19.414Z,6.60
2018-02-25T07:44:46.756Z,7.10
2018-02-25T07:47:14.100Z,7.20
2018-02-25T07:49:41.441Z,7.50
2018-02-25T07:52:08.810Z,7.30
2018-02-25T07:54:36.231Z,7.20
2018-02-25T07:57:03.603Z,7.30
2018-02-25T07:59:30.979Z,6.90
2018-02-25T08:01:58.324Z,7.50
2018-02-25T08:04:25.714Z,7.40
2018-02-25T08:06:53.059Z,7.03
2018-02-25T08:09:20.407Z,7.83
2018-02-25T08:11:47.859Z,7.63
2018-02-25T08:14:15.231Z,7.37
2018-02-25T08:16:42.577Z,7.33
2018-02-25T08:19:09.989Z,7.53
2018-02-25T08:21:37.338Z,7.00
2018-02-25T08:24:04.682Z,7.27
2018-02-25T08:26:32.027Z,7.63
2018-02-25T08:28:59.408Z,7.20
2018-02-25T08:31:26.827Z,7.43
2018-02-25T08:33:54.174Z,7.43
2018-02-25T08:36:21.514Z,7.20
2018-02-25T08:38:48.865Z,7.60
2018-02-25T08:41:16.226Z,7.03
2018-02-25T08:43:43.583Z,7.53
2018-02-25T08:46:10.972Z,6.93
2018-02-25T08:48:38.343Z,7.50
2018-02-25T08:51:05.687Z,7.30
2018-02-25T08:53:33.093Z,7.37
2018-02-25T08:56:00.438Z,7.50
2018-02-25T08:58:27.778Z,7.53
2018-02-25T09:00:55.226Z,7.70
2018-02-25T09:03:22.567Z,8.20
2018-02-25T09:05:49.950Z,7.17
2018-02-25T09:08:17.288Z,7.63
2018-02-25T09:10:44.675Z,7.30
2018-02-25T09:13:12.033Z,8.23
2018-02-25T09:15:39.426Z,8.07
2018-02-25T09:18:06.783Z,7.90
2018-02-25T09:20:34.150Z,8.00
2018-02-25T09:23:01.607Z,8.00
2018-02-25T09:25:28.964Z,7.90
2018-02-25T09:27:58.661Z,7.57
2018-02-25T09:30:26.493Z,7.83
2018-02-25T09:32:53.859Z,7.60
2018-02-25T09:35:21.195Z,7.43
2018-02-25T09:37:48.548Z,7.50
2018-02-25T09:40:15.891Z,7.37
2018-02-25T09:42:43.238Z,8.37
2018-02-25T09:45:10.586Z,7.93
2018-02-25T09:47:37.943Z,7.77
2018-02-25T09:50:05.289Z,7.73
2018-02-25T09:52:32.633Z,8.07
2018-02-25T09:55:00.041Z,7.80
2018-02-25T09:57:27.386Z,7.70
2018-02-25T09:59:54.728Z,7.97
2018-02-25T10:02:22.072Z,8.03
2018-02-25T10:04:49.420Z,8.00
2018-02-25T10:07:16.820Z,7.50
2018-02-25T10:09:44.170Z,8.00
2018-02-25T10:12:11.514Z,8.10
2018-02-25T10:14:38.894Z,7.63
2018-02-25T10:17:06.240Z,7.77
2018-02-25T10:19:33.580Z,7.70
2018-02-25T10:22:01.042Z,8.07
2018-02-25T10:24:28.362Z,8.23
2018-02-25T10:26:55.827Z,7.70
2018-02-25T10:29:23.188Z,7.50
2018-02-25T10:31:50.590Z,7.90
2018-02-25T10:34:17.932Z,7.60
2018-02-25T10:36:45.273Z,7.40
2018-02-25T10:39:12.646Z,7.90
2018-02-25T10:41:40.051Z,7.17
2018-02-25T10:44:07.421Z,7.73
2018-02-25T10:46:34.766Z,7.60
2018-02-25T10:49:02.133Z,7.27
2018-02-25T10:51:29.488Z,7.17
2018-02-25T10:53:56.832Z,7.00
2018-02-25T10:56:24.213Z,6.93
2018-02-25T10:58:51.561Z,7.23
2018-02-25T11:01:18.948Z,6.93
2018-02-25T11:03:46.294Z,6.73
2018-02-25T11:06:13.633Z,7.10
2018-02-25T11:08:40.983Z,6.80
2018-02-25T11:11:08.338Z,7.33
2018-02-25T11:13:35.673Z,6.77
2018-02-25T11:16:03.054Z,6.97
2018-02-25T11:18:30.444Z,6.97
2018-02-25T11:20:57.799Z,7.23
2018-02-25T11:23:25.176Z,7.13
2018-02-25T11:25:52.524Z,6.73
2018-02-25T11:28:19.921Z,7.03
2018-02-25T11:30:47.292Z,6.90
2018-02-25T11:33:14.698Z,6.57
2018-02-25T11:35:43.051Z,6.80
2018-02-25T11:38:10.434Z,6.50
2018-02-25T11:40:37.789Z,6.97
2018-02-25T11:43:05.163Z,6.70
2018-02-25T11:45:32.600Z,6.67
2018-02-25T11:47:59.976Z,6.63
2018-02-25T11:50:27.335Z,6.83
2018-02-25T11:52:54.791Z,7.10
2018-02-25T11:55:22.177Z,6.83
2018-02-25T11:57:49.557Z,7.07
2018-02-25T12:00:16.912Z,7.50
2018-02-25T12:02:44.317Z,7.00
2018-02-25T12:05:11.668Z,6.80
2018-02-25T12:07:39.024Z,6.57
2018-02-25T12:10:06.453Z,7.40
2018-02-25T12:12:33.804Z,6.83
2018-02-25T12:15:01.202Z,7.10
2018-02-25T12:17:28.564Z,7.50
2018-02-25T12:19:55.962Z,7.13
2018-02-25T12:22:23.352Z,7.47
2018-02-25T12:24:50.698Z,7.00
2018-02-25T12:27:18.043Z,7.57
2018-02-25T12:29:45.391Z,7.37
2018-02-25T12:32:12.803Z,7.47
2018-02-25T12:34:40.152Z,7.43
2018-02-25T12:37:07.544Z,7.67
2018-02-25T12:39:34.870Z,7.90
2018-02-25T12:42:02.259Z,8.27
2018-02-25T12:44:29.716Z,8.40
2018-02-25T12:46:57.064Z,7.90
2018-02-25T12:49:24.405Z,8.27
2018-02-25T12:51:51.743Z,7.33
2018-02-25T12:54:19.112Z,7.37
2018-02-25T12:56:46.533Z,7.43
2018-02-25T12:59:13.898Z,7.50
2018-02-25T13:01:41.276Z,7.13
2018-02-25T13:04:08.637Z,7.63
2018-02-25T13:06:35.990Z,7.20
2018-02-25T13:09:03.335Z,7.40
2018-02-25T13:11:30.730Z,7.37
2018-02-25T13:13:58.074Z,7.53
2018-02-25T13:16:25.458Z,7.67
2018-02-25T13:18:52.848Z,7.17
2018-02-25T13:21:20.231Z,7.30
2018-02-25T13:23:47.620Z,7.00
2018-02-25T13:26:14.969Z,6.83
2018-02-25T13:28:42.319Z,6.90
2018-02-25T13:31:09.714Z,6.93
2018-02-25T13:33:37.083Z,6.80
2018-02-25T13:36:04.478Z,7.03
2018-02-25T13:38:31.882Z,6.63
2018-02-25T13:40:59.255Z,6.50
2018-02-25T13:43:26.610Z,6.57
2018-02-25T13:45:53.984Z,6.50
2018-02-25T13:48:21.358Z,6.50
2018-02-25T13:50:48.747Z,6.30
2018-02-25T13:53:16.086Z,6.53
2018-02-25T13:55:43.502Z,6.23
2018-02-25T13:58:10.859Z,6.63
2018-02-25T14:00:38.218Z,6.40
2018-02-25T14:03:05.635Z,6.77
2018-02-25T14:05:33.021Z,6.73
2018-02-25T14:08:00.375Z,6.20
2018-02-25T14:10:27.732Z,5.93
2018-02-25T14:12:55.083Z,5.87
2018-02-25T14:15:22.532Z,6.00
2018-02-25T14:17:49.920Z,6.07
2018-02-25T14:20:17.301Z,6.00
2018-02-25T14:22:44.638Z,5.50
2018-02-25T14:25:12.066Z,6.13
2018-02-25T14:27:39.435Z,6.17
2018-02-25T14:30:06.780Z,5.97
2018-02-25T14:32:34.192Z,6.03
2018-02-25T14:35:01.540Z,6.27
2018-02-25T14:37:28.953Z,5.60
2018-02-25T14:39:56.329Z,6.07
2018-02-25T14:42:23.805Z,6.10
2018-02-25T14:44:51.149Z,5.97
2018-02-25T14:47:18.506Z,5.70
2018-02-25T14:49:45.907Z,5.90
2018-02-25T14:52:13.252Z,5.63
2018-02-25T14:54:40.612Z,6.23
2018-02-25T14:57:07.981Z,5.67
2018-02-25T14:59:35.321Z,5.80
2018-02-25T15:02:02.667Z,6.03
2018-02-25T15:04:30.015Z,5.90
2018-02-25T15:06:57.375Z,6.67
2018-02-25T15:09:24.714Z,6.27
2018-02-25T15:11:52.086Z,6.30
2018-02-25T15:14:19.450Z,6.50
2018-02-25T15:16:46.860Z,5.77
2018-02-25T15:19:14.202Z,6.37
2018-02-25T15:21:41.550Z,5.90
2018-02-25T15:24:08.901Z,6.63
2018-02-25T15:26:36.273Z,6.30
2018-02-25T15:29:03.736Z,7.03
2018-02-25T15:31:31.083Z,6.70
2018-02-25T15:33:58.422Z,7.20
2018-02-25T15:36:25.802Z,7.10
2018-02-25T15:38:53.145Z,7.67
2018-02-25T15:41:20.494Z,7.47
2018-02-25T15:43:47.842Z,7.13
2018-02-25T15:46:15.270Z,6.90
2018-02-25T15:48:42.624Z,6.97
2018-02-25T15:51:10.018Z,7.13
2018-02-25T15:53:37.367Z,7.67
2018-02-25T15:56:04.758Z,7.23
2018-02-25T15:58:32.110Z,7.23
2018-02-25T16:00:59.504Z,7.50
2018-02-25T16:03:26.901Z,7.57
2018-02-25T16:05:54.247Z,8.07
2018-02-25T16:08:21.602Z,7.13
2018-02-25T16:10:48.944Z,7.47
2018-02-25T16:13:16.274Z,6.83
2018-02-25T16:15:43.622Z,7.37
2018-02-25T16:18:11.011Z,7.20
2018-02-25T16:20:38.375Z,7.10
2018-02-25T16:23:05.740Z,6.87
2018-02-25T16:25:33.157Z,6.70
2018-02-25T16:28:00.539Z,7.10
2018-02-25T16:30:27.883Z,6.97
2018-02-25T16:32:55.270Z,6.70
2018-02-25T16:35:22.614Z,6.23
2018-02-25T16:37:49.970Z,6.53
2018-02-25T16:40:17.354Z,7.23
2018-02-25T16:42:44.685Z,6.43
2018-02-25T16:45:12.033Z,6.60
2018-02-25T16:47:39.418Z,6.53
2018-02-25T16:50:06.757Z,6.60
2018-02-25T16:52:34.105Z,6.50
2018-02-25T16:55:01.450Z,6.37
2018-02-25T16:57:28.846Z,6.43
2018-02-25T16:59:56.195Z,5.97
2018-02-25T17:02:23.575Z,5.90
2018-02-25T17:04:50.916Z,6.53
2018-02-25T17:07:18.263Z,6.23
2018-02-25T17:09:45.677Z,6.30
2018-02-25T17:12:12.986Z,5.90
2018-02-25T17:14:40.385Z,6.23
2018-02-25T17:17:07.726Z,6.13
2018-02-25T17:19:35.066Z,5.97
2018-02-25T17:22:02.414Z,6.13
2018-02-25T17:24:29.747Z,5.80
2018-02-25T17:26:57.123Z,5.80
2018-02-25T17:29:24.473Z,5.73
2018-02-25T17:31:51.828Z,5.70
2018-02-25T17:34:19.207Z,5.73
2018-02-25T17:36:46.584Z,6.03
2018-02-25T17:39:13.920Z,5.63
2018-02-25T17:41:41.304Z,5.87
2018-02-25T17:44:08.697Z,5.37
2018-02-25T17:46:36.098Z,5.40
2018-02-25T17:49:03.403Z,5.47
2018-02-25T17:51:30.806Z,5.33
2018-02-25T17:53:58.147Z,5.60
2018-02-25T17:56:25.488Z,5.37
2018-02-25T17:58:52.874Z,5.20
2018-02-25T18:01:20.206Z,5.20
2018-02-25T18:03:47.582Z,5.50
2018-02-25T18:06:14.966Z,5.50
2018-02-25T18:08:42.302Z,4.87
2018-02-25T18:11:09.642Z,5.50
2018-02-25T18:13:36.996Z,5.20
2018-02-25T18:16:04.381Z,4.93
2018-02-25T18:18:31.729Z,4.87
2018-02-25T18:20:59.062Z,4.93
2018-02-25T18:23:26.408Z,5.17
2018-02-25T18:25:53.747Z,4.70
2018-02-25T18:28:21.095Z,4.70
2018-02-25T18:30:48.491Z,5.30
2018-02-25T18:33:15.875Z,4.83
2018-02-25T18:35:43.259Z,4.83
2018-02-25T18:38:10.607Z,4.97
2018-02-25T18:40:37.944Z,4.33
2018-02-25T18:43:05.288Z,4.70
2018-02-25T18:45:32.684Z,4.43
2018-02-25T18:48:00.035Z,4.43
2018-02-25T18:50:27.401Z,4.63
2018-02-25T18:52:54.797Z,4.67
2018-02-25T18:55:22.146Z,4.50
2018-02-25T18:57:49.551Z,4.60
2018-02-25T19:00:16.950Z,4.60
2018-02-25T19:02:44.299Z,4.83
2018-02-25T19:05:11.681Z,4.67
2018-02-25T19:07:39.050Z,5.03
2018-02-25T19:10:06.392Z,4.80
2018-02-25T19:12:33.778Z,4.37
2018-02-25T19:15:01.132Z,4.63
2018-02-25T19:17:28.478Z,4.50
2018-02-25T19:19:55.815Z,4.67
2018-02-25T19:22:23.169Z,4.33
2018-02-25T19:24:50.514Z,4.50
2018-02-25T19:27:17.941Z,4.63
2018-02-25T19:29:45.288Z,4.30
2018-02-25T19:32:12.639Z,4.10
2018-02-25T19:34:40.014Z,4.23
2018-02-25T19:37:07.359Z,4.57
2018-02-25T19:39:34.750Z,4.43
2018-02-25T19:42:02.131Z,4.40
2018-02-25T19:44:29.495Z,4.10
2018-02-25T19:46:56.879Z,4.70
2018-02-25T19:49:24.224Z,4.33
2018-02-25T19:51:51.616Z,4.10
2018-02-25T19:54:18.967Z,4.33
2018-02-25T19:56:46.346Z,4.60
2018-02-25T19:59:13.735Z,4.37
2018-02-25T20:01:41.076Z,4.60
2018-02-25T20:04:08.461Z,4.30
2018-02-25T20:06:35.846Z,4.73
2018-02-25T20:09:03.274Z,4.07
2018-02-25T20:11:30.681Z,4.20
2018-02-25T20:13:58.087Z,4.20
2018-02-25T20:16:25.500Z,4.10
2018-02-25T20:18:52.846Z,4.50
2018-02-25T20:21:20.201Z,4.20
2018-02-25T20:23:47.542Z,4.73
2018-02-25T20:26:14.925Z,4.80
2018-02-25T20:28:42.306Z,4.37
2018-02-25T20:31:09.647Z,4.13
2018-02-25T20:33:37.032Z,4.27
2018-02-25T20:36:04.388Z,4.10
2018-02-25T20:38:31.785Z,4.30
2018-02-25T20:40:59.168Z,4.13
2018-02-25T20:43:26.561Z,4.20
2018-02-25T20:45:53.922Z,4.50
2018-02-25T20:48:21.309Z,4.20
2018-02-25T20:50:48.654Z,4.47
2018-02-25T20:53:16.059Z,4.10
2018-02-25T20:55:43.415Z,4.33
2018-02-25T20:58:10.764Z,4.50
2018-02-25T21:00:38.113Z,4.50
2018-02-25T21:03:05.514Z,4.40
2018-02-25T21:05:32.864Z,4.20
2018-02-25T21:08:00.198Z,4.63
2018-02-25T21:10:27.538Z,4.30
2018-02-25T21:12:54.944Z,4.60
2018-02-25T21:15:22.332Z,4.50
2018-02-25T21:17:49.714Z,4.87
2018-02-25T21:20:17.058Z,4.90
2018-02-25T21:22:44.444Z,4.33
2018-02-25T21:25:11.794Z,4.27
2018-02-25T21:27:39.173Z,4.60
2018-02-25T21:30:06.531Z,4.83
2018-02-25T21:32:33.979Z,5.00
2018-02-25T21:35:01.382Z,5.10
2018-02-25T21:37:28.722Z,5.20
2018-02-25T21:39:56.114Z,5.67
2018-02-25T21:42:23.487Z,5.00
2018-02-25T21:44:50.862Z,5.70
2018-02-25T21:47:18.251Z,5.47
2018-02-25T21:49:45.606Z,5.47
2018-02-25T21:52:12.954Z,5.40
2018-02-25T21:54:40.370Z,5.40
2018-02-25T21:57:07.745Z,5.50
2018-02-25T21:59:35.134Z,5.57
2018-02-25T22:02:02.517Z,5.37
2018-02-25T22:04:29.899Z,5.43
2018-02-25T22:06:57.237Z,5.60
2018-02-25T22:09:24.825Z,5.67
2018-02-25T22:11:52.008Z,5.67
2018-02-25T22:14:19.415Z,5.73
2018-02-25T22:16:46.768Z,6.17
2018-02-25T22:19:14.139Z,5.33
2018-02-25T22:21:41.538Z,5.27
2018-02-25T22:24:08.929Z,5.40
2018-02-25T22:26:36.276Z,5.80
2018-02-25T22:29:03.618Z,5.83
2018-02-25T22:31:30.966Z,5.37
2018-02-25T22:33:58.305Z,5.73
2018-02-25T22:36:25.705Z,5.57
2018-02-25T22:38:53.067Z,5.53
2018-02-25T22:41:20.407Z,5.10
2018-02-25T22:43:47.788Z,5.50
2018-02-25T22:46:15.131Z,5.27
2018-02-25T22:48:42.523Z,5.03
2018-02-25T22:51:09.893Z,4.80
2018-02-25T22:53:37.268Z,5.80
2018-02-25T22:56:04.658Z,5.20
2018-02-25T22:58:32.058Z,5.03
2018-02-25T23:00:59.421Z,5.00
2018-02-25T23:03:26.767Z,4.63
2018-02-25T23:05:54.128Z,5.13
2018-02-25T23:08:22.328Z,4.63
2018-02-25T23:10:49.685Z,4.83
2018-02-25T23:13:17.027Z,4.60
2018-02-25T23:15:44.410Z,4.40
2018-02-25T23:18:11.808Z,4.30
2018-02-25T23:20:39.149Z,4.80
2018-02-25T23:23:06.502Z,4.47
2018-02-25T23:25:33.873Z,4.67
2018-02-25T23:28:01.218Z,4.63
2018-02-25T23:30:28.570Z,4.67
2018-02-25T23:32:55.958Z,5.10
2018-02-25T23:35:23.307Z,4.13
2018-02-25T23:37:50.653Z,4.77
2018-02-25T23:40:17.991Z,4.43
2018-02-25T23:42:45.332Z,4.43
2018-02-25T23:45:12.711Z,4.10
2018-02-25T23:47:40.091Z,4.20
2018-02-25T23:50:07.487Z,4.10
2018-02-25T23:52:34.873Z,4.27
2018-02-25T23:55:02.222Z,4.50
2018-02-25T23:57:29.570Z,4.13
2018-02-25T23:59:56.947Z,4.40
